Time;durP1;ratioP1;P1;durP2;ratioP2;P2;SDS_P1;SDS_P2;PMS_P1;PMS_P2;Temp;Humidity;BMP_temperature;BMP_pressure;BME280_temperature;BME280_humidity;BME280_pressure;Samples;Min_cycle;Max_cycle;Signal;HPM_P1;HPM_P2
2022/12/17 13:06:42;;;;;;;81.80;25.88;;;;;;;-1.93;100.00;102571.41;5026736;28;20180;-63
2022/12/17 13:09:24;;;;;;;80.95;27.05;;;;;;;-1.93;99.92;102584.19;5026717;28;20275;-63
2022/12/17 13:11:58;;;;;;;81.07;26.40;;;;;;;-1.93;100.00;102579.09;5026739;28;20024;-63
2022/12/17 13:14:34;;;;;;;81.65;25.30;;;;;;;-1.95;100.00;102581.47;5026614;28;20025;-63
2022/12/17 13:17:15;;;;;;;75.75;25.63;;;;;;;-1.97;100.00;102582.06;5026799;28;20028;-63
2022/12/17 13:19:57;;;;;;;81.47;26.17;;;;;;;-1.98;99.76;102581.19;5026465;28;20271;-64
2022/12/17 13:22:22;;;;;;;79.25;25.15;;;;;;;-1.95;100.00;102580.59;5025392;28;20025;-64
2022/12/17 13:24:53;;;;;;;84.18;26.40;;;;;;;-1.94;99.74;102588.41;5026527;28;20025;-63
2022/12/17 13:27:45;;;;;;;78.35;25.40;;;;;;;-1.92;99.88;102581.78;5026616;28;20072;-64
2022/12/17 13:30:16;;;;;;;85.82;26.70;;;;;;;-1.91;99.68;102587.81;5023448;28;20030;-63
2022/12/17 13:32:44;;;;;;;87.25;26.63;;;;;;;-1.92;99.68;102575.78;5026096;28;20081;-63
2022/12/17 13:35:34;;;;;;;88.90;27.60;;;;;;;-1.93;99.60;102572.34;5026200;28;20022;-63
2022/12/17 13:38:30;;;;;;;89.50;27.02;;;;;;;-1.93;99.99;102567.25;5026201;28;20085;-63
2022/12/17 13:41:16;;;;;;;93.00;26.88;;;;;;;-1.94;99.89;102573.09;5026067;28;20029;-63
2022/12/17 13:43:43;;;;;;;86.43;27.02;;;;;;;-1.92;100.00;102578.34;5026169;28;20355;-63
2022/12/17 13:46:19;;;;;;;91.28;26.73;;;;;;;-1.91;100.00;102580.16;5025300;28;20045;-65
2022/12/17 13:48:51;;;;;;;94.25;28.15;;;;;;;-1.94;99.61;102582.38;5026049;28;20100;-66
2022/12/17 13:51:20;;;;;;;88.47;28.10;;;;;;;-1.99;99.79;102579.34;5025680;28;20319;-66
2022/12/17 13:53:56;;;;;;;92.33;26.77;;;;;;;-2.04;99.88;102580.56;5026160;28;20060;-66
2022/12/17 13:56:25;;;;;;;94.75;26.42;;;;;;;-2.11;100.00;102573.91;5025624;28;20256;-66
2022/12/17 13:58:52;;;;;;;78.95;26.02;;;;;;;-2.13;100.00;102577.03;5025819;28;20038;-66
2022/12/17 14:01:18;;;;;;;78.10;25.30;;;;;;;-2.15;100.00;102578.56;5025723;28;20053;-66
2022/12/17 14:03:50;;;;;;;83.45;25.63;;;;;;;-2.18;99.86;102583.34;5025824;28;20014;-66
2022/12/17 14:06:16;;;;;;;85.72;25.88;;;;;;;-2.19;100.00;102586.63;5025676;28;20072;-66
2022/12/17 14:08:42;;;;;;;79.03;25.08;;;;;;;-2.24;100.00;102575.06;5025877;28;20013;-66
2022/12/17 14:13:54;;;;;;;79.30;23.75;;;;;;;-2.34;100.00;102584.31;5025595;28;20029;-66
2022/12/17 14:16:20;;;;;;;86.30;26.50;;;;;;;-2.36;100.00;102580.69;5025459;28;20022;-64
2022/12/17 14:18:53;;;;;;;77.35;25.50;;;;;;;-2.35;100.00;102582.47;5025334;28;20180;-63
2022/12/17 14:21:20;;;;;;;87.07;26.05;;;;;;;-2.33;100.00;102581.00;5025227;28;20018;-64
2022/12/17 14:23:47;;;;;;;81.85;25.95;;;;;;;-2.28;100.00;102586.59;5025387;28;20033;-63
2022/12/17 14:26:13;;;;;;;80.07;25.90;;;;;;;-2.24;100.00;102593.81;5024108;28;20067;-64
2022/12/17 14:28:49;;;;;;;79.07;24.85;;;;;;;-2.20;100.00;102593.41;5024994;28;20018;-64
2022/12/17 14:31:19;;;;;;;77.35;24.75;;;;;;;-2.17;100.00;102592.78;5024954;28;20024;-63
2022/12/17 14:33:44;;;;;;;88.75;26.48;;;;;;;-2.16;100.00;102592.06;5025074;28;20021;-64
2022/12/17 14:36:22;;;;;;;87.10;27.00;;;;;;;-2.19;100.00;102599.41;5025095;28;20049;-64
2022/12/17 14:38:58;;;;;;;85.03;25.77;;;;;;;-2.19;100.00;102596.84;5025060;28;20129;-64
2022/12/17 14:44:19;;;;;;;85.93;26.63;;;;;;;-2.19;100.00;102600.28;5024664;28;20076;-64
2022/12/17 14:46:45;;;;;;;81.72;24.83;;;;;;;-2.21;99.66;102603.47;5024680;28;20045;-64
2022/12/17 14:49:16;;;;;;;86.80;25.70;;;;;;;-2.29;100.00;102598.47;5024586;28;20072;-64
2022/12/17 14:51:42;;;;;;;74.60;25.70;;;;;;;-2.31;100.00;102612.69;5024590;28;20032;-63
2022/12/17 14:54:13;;;;;;;71.53;24.05;;;;;;;-2.32;100.00;102608.38;5024766;28;20022;-64
2022/12/17 14:56:40;;;;;;;74.43;22.67;;;;;;;-2.32;99.80;102607.44;5024611;28;20188;-64
2022/12/17 14:59:32;;;;;;;68.95;23.27;;;;;;;-2.33;99.89;102609.09;5023881;28;20084;-64
2022/12/17 15:02:02;;;;;;;72.90;23.42;;;;;;;-2.37;99.93;102618.84;5024470;28;20020;-64
2022/12/17 15:04:29;;;;;;;74.45;23.67;;;;;;;-2.38;99.77;102614.47;5024618;28;20032;-64
2022/12/17 15:06:55;;;;;;;78.57;24.15;;;;;;;-2.40;99.64;102619.41;5024444;28;20017;-64
2022/12/17 15:09:20;;;;;;;78.07;24.90;;;;;;;-2.41;99.80;102624.34;5023336;28;20028;-64
2022/12/17 15:11:46;;;;;;;87.78;26.08;;;;;;;-2.41;100.00;102621.81;5024305;28;20029;-64
2022/12/17 15:14:11;;;;;;;80.22;24.77;;;;;;;-2.41;100.00;102632.91;5024451;28;20172;-64
2022/12/17 15:16:36;;;;;;;83.50;26.15;;;;;;;-2.40;100.00;102632.19;5024232;28;20037;-66
2022/12/17 15:19:02;;;;;;;90.80;26.83;;;;;;;-2.44;100.00;102637.69;5024564;28;20029;-66
2022/12/17 15:21:27;;;;;;;95.13;26.73;;;;;;;-2.52;99.87;102643.63;5024395;28;20022;-66
2022/12/17 15:23:52;;;;;;;87.18;25.70;;;;;;;-2.55;100.00;102648.41;5024389;28;20021;-66
2022/12/17 15:26:18;;;;;;;89.90;25.85;;;;;;;-2.63;99.95;102647.63;5022865;28;20208;-66
2022/12/17 15:28:44;;;;;;;86.38;26.35;;;;;;;-2.69;100.00;102647.88;5022957;28;20028;-66
2022/12/17 15:31:11;;;;;;;90.22;26.63;;;;;;;-2.72;100.00;102656.84;5023763;28;20021;-66
2022/12/17 15:33:36;;;;;;;90.90;25.35;;;;;;;-2.78;100.00;102654.56;5024183;28;20185;-66
2022/12/17 15:36:02;;;;;;;91.97;26.63;;;;;;;-2.84;100.00;102659.00;5024193;28;20280;-66
2022/12/17 15:38:27;;;;;;;91.18;24.92;;;;;;;-2.86;100.00;102652.84;5023903;28;20287;-66
2022/12/17 15:40:53;;;;;;;96.50;27.60;;;;;;;-2.88;100.00;102665.44;5024111;28;20090;-66
2022/12/17 15:43:18;;;;;;;90.95;24.65;;;;;;;-2.86;100.00;102663.03;5024292;28;20026;-66
2022/12/17 15:45:48;;;;;;;91.28;27.83;;;;;;;-2.90;100.00;102663.44;5023746;28;20021;-66
2022/12/17 15:48:16;;;;;;;97.53;27.27;;;;;;;-2.91;100.00;102664.16;5023756;28;20056;-64
2022/12/17 15:50:41;;;;;;;100.50;27.58;;;;;;;-2.93;100.00;102658.91;5024012;28;20264;-64
2022/12/17 15:53:07;;;;;;;105.32;26.95;;;;;;;-2.90;100.00;102666.88;5023843;28;20022;-64
2022/12/17 15:55:33;;;;;;;90.40;27.10;;;;;;;-2.91;100.00;102667.66;5023882;28;20056;-64
2022/12/17 15:57:58;;;;;;;83.97;24.98;;;;;;;-2.92;100.00;102667.50;5023845;28;20184;-64
2022/12/17 16:00:23;;;;;;;85.20;25.58;;;;;;;-2.94;100.00;102676.59;5023641;28;20272;-64
2022/12/17 16:02:49;;;;;;;89.65;25.60;;;;;;;-2.92;100.00;102670.94;5023734;28;20025;-64
2022/12/17 16:05:15;;;;;;;85.70;25.38;;;;;;;-2.88;100.00;102672.16;5023553;28;20153;-64
2022/12/17 16:07:42;;;;;;;90.03;26.23;;;;;;;-2.84;100.00;102674.28;5023554;28;20026;-64
2022/12/17 16:10:10;;;;;;;82.53;25.77;;;;;;;-2.78;100.00;102689.34;5026143;28;20092;-64
2022/12/17 16:12:35;;;;;;;86.63;24.85;;;;;;;-2.76;100.00;102677.69;5027607;28;20029;-64
2022/12/17 16:15:01;;;;;;;84.55;24.75;;;;;;;-2.76;100.00;102670.91;5027508;28;20045;-64
2022/12/17 16:17:28;;;;;;;83.97;25.55;;;;;;;-2.74;100.00;102673.63;5027430;28;20034;-66
2022/12/17 16:19:53;;;;;;;84.28;24.88;;;;;;;-2.76;100.00;102673.47;5027744;28;20017;-66
2022/12/17 16:22:18;;;;;;;74.18;23.63;;;;;;;-2.74;100.00;102671.09;5027603;28;20018;-66
2022/12/17 16:24:44;;;;;;;81.35;24.60;;;;;;;-2.76;100.00;102673.47;5027433;28;20260;-66
2022/12/17 16:27:09;;;;;;;77.75;24.83;;;;;;;-2.74;100.00;102671.09;5027395;28;20145;-66
2022/12/17 16:29:34;;;;;;;81.65;23.90;;;;;;;-2.73;100.00;102676.34;5027332;28;20320;-66
2022/12/17 16:32:00;;;;;;;80.28;23.23;;;;;;;-2.72;100.00;102679.78;5027411;28;20093;-66
2022/12/17 16:34:25;;;;;;;96.95;27.98;;;;;;;-2.73;100.00;102667.81;5027373;28;20026;-66
2022/12/17 16:36:51;;;;;;;91.35;27.05;;;;;;;-2.73;100.00;102675.47;5027422;28;20017;-66
2022/12/17 16:39:17;;;;;;;92.40;27.45;;;;;;;-2.77;100.00;102684.41;5027281;28;20044;-66
2022/12/17 16:41:43;;;;;;;96.43;28.05;;;;;;;-2.84;100.00;102681.94;5027299;28;20056;-66
2022/12/17 16:44:10;;;;;;;89.93;26.88;;;;;;;-2.91;100.00;102677.84;5026962;28;20025;-66
2022/12/17 16:46:40;;;;;;;94.50;27.70;;;;;;;-2.98;100.00;102670.28;5027204;28;20026;-66
2022/12/17 16:49:11;;;;;;;100.60;27.52;;;;;;;-3.06;100.00;102676.19;5027026;28;20022;-66
2022/12/17 16:51:38;;;;;;;94.20;25.85;;;;;;;-3.17;100.00;102675.94;5027279;28;20049;-66
2022/12/17 16:54:10;;;;;;;96.72;27.02;;;;;;;-3.22;100.00;102688.91;5027065;28;20056;-66
2022/12/17 16:56:35;;;;;;;87.75;26.05;;;;;;;-3.24;100.00;102682.75;5026970;28;20021;-66
2022/12/17 16:59:03;;;;;;;90.47;24.95;;;;;;;-3.27;100.00;102679.84;5027064;28;20068;-66
2022/12/17 17:01:29;;;;;;;93.95;25.42;;;;;;;-3.27;100.00;102692.59;5026960;28;20035;-67
2022/12/17 17:03:55;;;;;;;84.40;25.70;;;;;;;-3.27;100.00;102682.41;5026939;28;20032;-66
2022/12/17 17:06:21;;;;;;;98.40;28.20;;;;;;;-3.28;100.00;102681.50;5026729;28;20296;-66
2022/12/17 17:08:47;;;;;;;100.65;27.98;;;;;;;-3.33;100.00;102678.47;5027163;28;20172;-66
2022/12/17 17:11:15;;;;;;;87.78;26.25;;;;;;;-3.36;100.00;102674.66;5026607;28;20045;-66
2022/12/17 17:13:41;;;;;;;80.13;24.00;;;;;;;-3.40;100.00;102677.63;5026748;28;20176;-67
2022/12/17 17:16:08;;;;;;;92.88;28.45;;;;;;;-3.41;100.00;102679.25;5026730;28;20017;-66
2022/12/17 17:18:34;;;;;;;92.68;26.77;;;;;;;-3.44;100.00;102685.69;5026755;28;20025;-66
2022/12/17 17:21:17;;;;;;;94.22;26.02;;;;;;;-3.43;100.00;102683.31;5025683;28;20269;-67
2022/12/17 17:23:43;;;;;;;92.40;25.13;;;;;;;-3.40;100.00;102688.72;5014533;28;20052;-67
2022/12/17 17:26:09;;;;;;;92.00;25.83;;;;;;;-3.39;100.00;102698.19;5014599;28;20010;-67
2022/12/17 17:28:34;;;;;;;90.75;24.80;;;;;;;-3.37;100.00;102699.25;5013935;28;20080;-67
2022/12/17 17:31:01;;;;;;;76.80;23.90;;;;;;;-3.33;100.00;102700.50;5015731;28;20022;-67
2022/12/17 17:33:31;;;;;;;88.72;26.50;;;;;;;-3.29;100.00;102697.53;5022505;28;20042;-67
2022/12/17 17:36:07;;;;;;;101.13;28.20;;;;;;;-3.26;100.00;102702.06;5026267;28;20021;-67
2022/12/17 17:38:34;;;;;;;87.00;26.15;;;;;;;-3.25;100.00;102711.53;5026033;28;20020;-67
2022/12/17 17:40:59;;;;;;;92.63;25.95;;;;;;;-3.26;100.00;102702.06;5025032;28;20266;-67
2022/12/17 17:43:25;;;;;;;86.05;27.70;;;;;;;-3.34;100.00;102704.69;5026163;28;20108;-67
2022/12/17 17:45:51;;;;;;;87.72;26.25;;;;;;;-3.40;100.00;102706.56;5025760;28;20240;-67
2022/12/17 17:48:17;;;;;;;94.25;26.25;;;;;;;-3.41;100.00;102702.19;5025628;28;20272;-67
2022/12/17 17:50:42;;;;;;;84.50;24.42;;;;;;;-3.45;100.00;102707.69;5025678;28;20037;-67
2022/12/17 17:53:08;;;;;;;87.93;25.83;;;;;;;-3.45;100.00;102706.78;5025746;28;20063;-67
2022/12/17 17:55:34;;;;;;;84.57;26.02;;;;;;;-3.50;100.00;102702.09;5025843;28;20017;-67
2022/12/17 17:57:59;;;;;;;84.32;26.05;;;;;;;-3.54;100.00;102714.34;5025765;28;20022;-67
2022/12/17 18:00:24;;;;;;;81.95;27.08;;;;;;;-3.59;100.00;102711.28;5025632;28;20018;-67
2022/12/17 18:02:49;;;;;;;86.45;25.67;;;;;;;-3.63;100.00;102708.22;5026043;28;20072;-67
2022/12/17 18:05:15;;;;;;;85.75;26.08;;;;;;;-3.70;100.00;102707.53;5022862;28;20220;-67
2022/12/17 18:07:40;;;;;;;89.18;25.55;;;;;;;-3.76;100.00;102704.31;5013520;28;20026;-67
2022/12/17 18:10:06;;;;;;;82.97;24.95;;;;;;;-3.76;100.00;102709.41;5014072;28;20073;-67
2022/12/17 18:15:15;;;;;;;89.95;25.08;;;;;;;-3.75;100.00;102713.78;5013028;28;20033;-67
2022/12/17 18:17:41;;;;;;;77.05;24.27;;;;;;;-3.75;100.00;102712.84;5020172;28;20033;-67
2022/12/17 18:20:08;;;;;;;89.15;24.42;;;;;;;-3.74;100.00;102709.56;5025289;28;20026;-67
2022/12/17 18:22:33;;;;;;;83.07;24.55;;;;;;;-3.78;100.00;102710.88;5025072;28;20176;-67
2022/12/17 18:24:58;;;;;;;78.18;23.90;;;;;;;-3.82;100.00;102713.81;5025239;28;20046;-67
2022/12/17 18:27:24;;;;;;;76.63;24.08;;;;;;;-3.85;100.00;102718.56;5023437;28;20018;-67
2022/12/17 18:29:49;;;;;;;77.82;24.73;;;;;;;-3.86;100.00;102719.31;5013714;28;20022;-67
2022/12/17 18:32:14;;;;;;;71.43;23.67;;;;;;;-3.86;100.00;102711.66;5013432;28;20057;-67
2022/12/17 18:34:39;;;;;;;68.55;22.17;;;;;;;-3.80;100.00;102716.53;5016908;28;20036;-67
2022/12/17 18:37:05;;;;;;;74.25;23.70;;;;;;;-3.75;100.00;102708.69;5021704;28;20021;-66
2022/12/17 18:39:30;;;;;;;72.97;23.33;;;;;;;-3.71;100.00;102721.03;5024984;28;20021;-67
2022/12/17 18:44:40;;;;;;;86.07;26.15;;;;;;;-3.64;100.00;102707.31;5024758;28;20045;-67
2022/12/17 18:47:06;;;;;;;75.50;23.65;;;;;;;-3.65;100.00;102714.78;5022266;28;20026;-65
2022/12/17 18:49:31;;;;;;;80.57;24.02;;;;;;;-3.67;100.00;102707.88;5023410;28;20026;-64
2022/12/17 18:51:57;;;;;;;72.30;24.50;;;;;;;-3.77;100.00;102710.13;5024816;28;20276;-64
2022/12/17 18:54:24;;;;;;;70.57;22.08;;;;;;;-3.87;100.00;102708.22;5024736;28;20032;-64
2022/12/17 18:56:51;;;;;;;66.13;21.45;;;;;;;-3.86;100.00;102711.66;5024748;28;20045;-64
2022/12/17 18:59:19;;;;;;;67.50;20.55;;;;;;;-3.96;100.00;102722.44;5024538;28;20165;-64
2022/12/17 19:01:45;;;;;;;65.05;21.33;;;;;;;-4.06;100.00;102724.69;5024523;28;20101;-65
2022/12/17 19:04:12;;;;;;;61.10;21.15;;;;;;;-4.11;100.00;102725.81;5024577;28;20014;-64
2022/12/17 19:06:38;;;;;;;62.22;20.75;;;;;;;-4.15;100.00;102727.13;5024846;28;20226;-64
2022/12/17 19:09:06;;;;;;;73.07;23.25;;;;;;;-4.17;100.00;102731.13;5024605;28;20200;-64
2022/12/17 19:11:33;;;;;;;72.78;23.08;;;;;;;-4.16;100.00;102730.38;5024417;28;20061;-64
2022/12/17 19:13:59;;;;;;;69.15;22.20;;;;;;;-4.15;100.00;102727.13;5024456;28;20025;-64
2022/12/17 19:16:27;;;;;;;74.68;23.48;;;;;;;-4.14;100.00;102728.94;5024401;28;20028;-67
2022/12/17 19:18:55;;;;;;;71.78;23.13;;;;;;;-4.11;100.00;102736.91;5017649;28;20083;-67
2022/12/17 19:21:21;;;;;;;79.05;24.90;;;;;;;-4.11;100.00;102739.47;5012396;28;20057;-67
2022/12/17 19:23:48;;;;;;;92.22;26.15;;;;;;;-4.10;100.00;102738.75;5012985;28;20103;-67
2022/12/17 19:26:18;;;;;;;78.20;24.13;;;;;;;-4.11;100.00;102751.25;5012118;28;20024;-67
2022/12/17 19:28:48;;;;;;;84.13;26.48;;;;;;;-4.11;100.00;102749.66;5011981;28;20140;-68
2022/12/17 19:31:14;;;;;;;81.25;25.40;;;;;;;-4.10;100.00;102742.91;5012403;28;20435;-67
2022/12/17 19:33:39;;;;;;;77.18;24.65;;;;;;;-4.07;100.00;102750.88;5013397;28;20176;-67
2022/12/17 19:36:08;;;;;;;70.57;24.08;;;;;;;-4.04;100.00;102752.16;5010406;28;20014;-67
2022/12/17 19:38:33;;;;;;;83.97;26.17;;;;;;;-3.99;100.00;102752.66;5012461;28;20184;-67
2022/12/17 19:41:10;;;;;;;88.35;25.00;;;;;;;-3.98;100.00;102749.41;5011575;28;20273;-67
2022/12/17 19:43:36;;;;;;;80.72;25.65;;;;;;;-3.95;100.00;102748.84;5012653;28;20022;-67
2022/12/17 19:46:07;;;;;;;77.90;23.80;;;;;;;-3.94;100.00;102753.19;5027169;28;20307;-67
2022/12/17 19:48:34;;;;;;;77.95;23.65;;;;;;;-3.98;100.00;102745.91;5012272;28;20287;-67
2022/12/17 19:51:01;;;;;;;83.57;25.15;;;;;;;-4.04;100.00;102741.97;5011293;28;20029;-67
2022/12/17 19:53:27;;;;;;;75.50;24.83;;;;;;;-4.05;100.00;102749.44;5010954;28;20038;-67
2022/12/17 19:55:54;;;;;;;87.97;24.50;;;;;;;-4.04;100.00;102741.03;5012031;28;20010;-67
2022/12/17 19:58:20;;;;;;;73.70;22.23;;;;;;;-4.07;100.00;102744.19;5012167;28;20017;-67
2022/12/17 20:00:45;;;;;;;75.57;23.58;;;;;;;-4.10;100.00;102750.53;5011588;28;20017;-67
2022/12/17 20:03:10;;;;;;;86.25;23.88;;;;;;;-4.10;100.00;102759.09;5011079;28;20232;-67
2022/12/17 20:05:35;;;;;;;65.97;22.92;;;;;;;-4.14;100.00;102761.09;5011605;28;20026;-67
2022/12/17 20:08:01;;;;;;;64.15;21.75;;;;;;;-4.13;100.00;102757.84;5012679;28;20014;-67
2022/12/17 20:10:26;;;;;;;64.28;21.38;;;;;;;-4.11;100.00;102762.38;5011479;28;20094;-67
2022/12/17 20:12:51;;;;;;;67.50;24.10;;;;;;;-4.09;100.00;102770.19;5012147;28;20092;-67
2022/12/17 20:15:17;;;;;;;71.05;22.83;;;;;;;-4.09;100.00;102780.38;5011701;28;20186;-67
2022/12/17 20:17:42;;;;;;;67.10;23.52;;;;;;;-4.11;100.00;102781.81;5011039;28;20060;-67
2022/12/17 20:20:08;;;;;;;81.22;22.90;;;;;;;-4.21;100.00;102778.22;5014482;28;20157;-67
2022/12/17 20:22:33;;;;;;;68.65;22.63;;;;;;;-4.26;100.00;102778.44;5012686;28;20055;-67
2022/12/17 20:25:00;;;;;;;68.70;21.98;;;;;;;-4.31;100.00;102785.56;5011180;28;20283;-67
2022/12/17 20:27:25;;;;;;;61.92;20.33;;;;;;;-4.34;100.00;102781.72;5010327;28;20157;-67
2022/12/17 20:29:51;;;;;;;72.70;23.33;;;;;;;-4.40;100.00;102781.97;5011616;28;20045;-67
2022/12/17 20:32:19;;;;;;;63.45;22.33;;;;;;;-4.43;100.00;102776.50;5011563;28;20034;-67
2022/12/17 20:34:44;;;;;;;63.90;21.00;;;;;;;-4.41;100.00;102775.03;5011108;28;20018;-67
2022/12/17 20:37:10;;;;;;;70.40;23.67;;;;;;;-4.41;100.00;102773.41;5012048;28;20014;-67
2022/12/17 20:39:35;;;;;;;66.43;22.77;;;;;;;-4.41;100.00;102773.41;5010427;28;20172;-67
2022/12/17 20:42:00;;;;;;;66.88;21.55;;;;;;;-4.41;100.00;102769.97;5014352;28;20018;-67
2022/12/17 20:44:26;;;;;;;60.58;21.30;;;;;;;-4.45;100.00;102765.25;5011760;28;20245;-67
2022/12/17 20:46:51;;;;;;;61.15;22.65;;;;;;;-4.49;100.00;102761.47;5012029;28;20045;-67
2022/12/17 20:49:16;;;;;;;58.83;21.98;;;;;;;-4.52;100.00;102762.72;5011511;28;20571;-67
2022/12/17 20:51:42;;;;;;;66.93;22.95;;;;;;;-4.59;100.00;102762.03;5011196;28;20041;-67
2022/12/17 20:54:08;;;;;;;59.85;23.15;;;;;;;-4.65;100.00;102763.88;5011967;28;20113;-67
2022/12/17 20:56:35;;;;;;;66.90;22.20;;;;;;;-4.65;100.00;102761.31;5013264;28;20033;-67
2022/12/17 20:59:04;;;;;;;59.85;21.85;;;;;;;-4.65;100.00;102753.69;5015389;28;20029;-67
2022/12/17 21:01:32;;;;;;;65.15;21.85;;;;;;;-4.64;100.00;102759.69;5015244;28;20030;-67
2022/12/17 21:03:58;;;;;;;64.30;22.45;;;;;;;-4.66;100.00;102761.13;5014980;28;20025;-67
2022/12/17 21:06:31;;;;;;;68.30;23.55;;;;;;;-4.67;100.00;102760.22;5015025;28;20057;-67
2022/12/17 21:08:57;;;;;;;67.80;23.05;;;;;;;-4.62;100.00;102764.22;5014878;28;20022;-67
2022/12/17 21:11:25;;;;;;;66.82;21.92;;;;;;;-4.56;100.00;102771.66;5014934;28;20266;-67
2022/12/17 21:13:52;;;;;;;60.42;21.15;;;;;;;-4.51;100.00;102773.06;5014387;28;20029;-67
2022/12/17 21:16:20;;;;;;;60.42;22.15;;;;;;;-4.48;100.00;102760.69;5015317;28;20097;-67
2022/12/17 21:18:45;;;;;;;61.03;21.25;;;;;;;-4.48;100.00;102760.69;5015058;28;20018;-67
2022/12/17 21:21:15;;;;;;;61.83;22.08;;;;;;;-4.51;100.00;102764.56;5014736;28;20021;-67
2022/12/17 21:23:41;;;;;;;62.03;21.58;;;;;;;-4.55;100.00;102771.84;5016271;28;20026;-67
2022/12/17 21:26:11;;;;;;;64.05;22.30;;;;;;;-4.55;100.00;102776.00;5014830;28;20116;-67
2022/12/17 21:28:38;;;;;;;63.47;22.48;;;;;;;-4.54;100.00;102772.72;5016393;28;20086;-67
2022/12/17 21:31:04;;;;;;;66.55;21.42;;;;;;;-4.56;100.00;102774.19;5014547;28;20092;-67
2022/12/17 21:33:29;;;;;;;61.65;21.63;;;;;;;-4.55;100.00;102783.63;5014180;28;20034;-67
2022/12/17 21:36:03;;;;;;;64.45;22.20;;;;;;;-4.55;100.00;102781.06;5014149;28;20264;-67
2022/12/17 21:38:28;;;;;;;59.85;21.13;;;;;;;-4.55;100.00;102781.06;5020167;28;20022;-67
2022/12/17 21:40:55;;;;;;;55.55;20.98;;;;;;;-4.56;100.00;102784.38;5025998;28;20010;-67
2022/12/17 21:43:22;;;;;;;62.30;21.45;;;;;;;-4.59;100.00;102781.44;5016713;28;20018;-67
2022/12/17 21:45:47;;;;;;;53.70;21.60;;;;;;;-4.58;100.00;102786.72;5014384;28;20084;-67
2022/12/17 21:48:12;;;;;;;55.50;21.67;;;;;;;-4.63;100.00;102781.84;5018113;28;20021;-67
2022/12/17 21:50:40;;;;;;;63.10;22.13;;;;;;;-4.66;100.00;102784.94;5022943;28;20009;-67
2022/12/17 21:53:06;;;;;;;51.13;20.00;;;;;;;-4.69;100.00;102786.19;5018422;28;20010;-67
2022/12/17 21:55:31;;;;;;;58.35;21.40;;;;;;;-4.72;100.00;102789.31;5023630;28;20092;-67
2022/12/17 21:57:56;;;;;;;57.28;20.20;;;;;;;-4.73;100.00;102780.75;5007771;28;20034;-64
2022/12/17 22:00:22;;;;;;;56.58;21.05;;;;;;;-4.78;100.00;102792.06;5002297;28;20161;-64
2022/12/17 22:02:47;;;;;;;63.78;21.85;;;;;;;-4.79;100.00;102790.22;5003249;28;20014;-64
2022/12/17 22:05:12;;;;;;;58.20;21.02;;;;;;;-4.78;100.00;102794.59;5004910;28;20010;-64
2022/12/17 22:07:38;;;;;;;57.65;21.85;;;;;;;-4.78;100.00;102797.13;5005718;28;20011;-64
2022/12/17 22:10:03;;;;;;;59.42;21.90;;;;;;;-4.77;100.00;102798.03;5004637;28;20018;-64
2022/12/17 22:15:12;;;;;;;60.35;22.13;;;;;;;-4.66;100.00;102804.34;5005867;28;20025;-64
2022/12/17 22:17:39;;;;;;;61.67;21.33;;;;;;;-4.63;100.00;102807.28;5006237;28;20073;-64
2022/12/17 22:20:05;;;;;;;64.55;22.63;;;;;;;-4.60;100.00;102812.72;5005782;28;20025;-64
2022/12/17 22:22:31;;;;;;;62.80;22.27;;;;;;;-4.60;100.00;102812.72;5005637;28;20279;-64
2022/12/17 22:24:56;;;;;;;63.40;21.92;;;;;;;-4.56;100.00;102814.91;5005796;28;20010;-64
2022/12/17 22:27:22;;;;;;;61.75;22.83;;;;;;;-4.56;100.00;102814.91;5003997;28;20026;-68
2022/12/17 22:35:15;;;;;;;59.17;22.92;;;;;;;-4.50;100.00;102814.66;4995332;28;20393;-68
2022/12/17 22:37:40;;;;;;;61.85;22.98;;;;;;;-4.48;100.00;102818.31;4995386;28;20022;-68
2022/12/17 22:40:06;;;;;;;65.72;22.58;;;;;;;-4.47;99.54;102810.88;4995506;28;20006;-68
2022/12/17 22:45:15;;;;;;;60.83;22.88;;;;;;;-4.43;99.13;102801.94;4994800;28;20081;-68
2022/12/17 22:47:41;;;;;;;62.33;22.95;;;;;;;-4.42;98.63;102803.75;4995491;28;20026;-68
2022/12/17 22:50:06;;;;;;;55.78;22.42;;;;;;;-4.43;98.26;102796.84;4995159;28;20046;-68
2022/12/17 22:52:31;;;;;;;62.65;21.77;;;;;;;-4.46;97.71;102796.50;4994767;28;20117;-68
2022/12/17 22:54:57;;;;;;;64.53;22.75;;;;;;;-4.48;97.83;102797.97;4994676;28;20983;-68
2022/12/17 22:57:22;;;;;;;57.63;22.10;;;;;;;-4.52;98.00;102804.31;4995166;28;20288;-64
2022/12/17 22:59:47;;;;;;;59.40;22.42;;;;;;;-4.55;97.21;102804.91;4993055;28;20010;-64
2022/12/17 23:02:12;;;;;;;56.15;21.90;;;;;;;-4.57;97.73;102813.97;4995192;28;20029;-65
2022/12/17 23:04:38;;;;;;;58.10;21.67;;;;;;;-4.58;97.23;102813.78;4996122;28;20085;-64
2022/12/17 23:07:03;;;;;;;56.58;22.40;;;;;;;-4.62;96.91;102806.53;4997884;28;20049;-64
2022/12/17 23:09:28;;;;;;;60.65;22.58;;;;;;;-4.66;96.16;102806.91;5004762;28;20014;-64
2022/12/17 23:11:54;;;;;;;59.85;22.73;;;;;;;-4.66;96.63;102801.81;5004804;28;20030;-64
2022/12/17 23:14:19;;;;;;;55.78;22.65;;;;;;;-4.70;96.62;102789.50;5005029;28;20261;-64
2022/12/17 23:16:45;;;;;;;57.88;22.58;;;;;;;-4.74;96.56;102778.94;5004795;28;20022;-64
2022/12/17 23:19:11;;;;;;;53.72;21.65;;;;;;;-4.78;96.23;102780.94;5004013;28;20010;-64
2022/12/17 23:21:36;;;;;;;58.33;23.58;;;;;;;-4.80;95.61;102772.25;5004603;28;20010;-64
2022/12/17 23:24:03;;;;;;;57.70;21.70;;;;;;;-4.83;95.75;102772.78;5004746;28;20077;-64
2022/12/17 23:26:32;;;;;;;60.00;22.30;;;;;;;-4.87;95.73;102773.16;4991755;28;20227;-68
2022/12/17 23:29:00;;;;;;;55.08;21.02;;;;;;;-4.90;94.88;102772.81;4998390;28;20037;-68
2022/12/17 23:31:30;;;;;;;57.30;21.88;;;;;;;-4.93;94.84;102777.53;4996836;28;20331;-68
2022/12/17 23:33:56;;;;;;;51.03;20.70;;;;;;;-4.96;95.53;102779.72;4995403;28;20057;-68
2022/12/17 23:36:23;;;;;;;59.70;21.58;;;;;;;-4.97;94.64;102786.44;4993977;28;20026;-68
2022/12/17 23:38:49;;;;;;;59.55;22.63;;;;;;;-4.98;94.50;102792.25;4994326;28;20193;-68
2022/12/17 23:41:17;;;;;;;54.63;22.20;;;;;;;-5.01;94.21;102791.91;4994629;28;20014;-68
2022/12/17 23:43:43;;;;;;;52.17;20.98;;;;;;;-5.01;95.05;102788.44;4994974;28;20026;-68
2022/12/17 23:46:09;;;;;;;58.08;22.08;;;;;;;-5.03;94.23;102790.81;4994032;28;20046;-68
2022/12/17 23:48:38;;;;;;;59.60;22.63;;;;;;;-5.06;93.48;102790.44;4995219;28;20011;-68
2022/12/17 23:51:03;;;;;;;58.13;22.23;;;;;;;-5.11;93.51;102786.47;4994015;28;20022;-68
2022/12/17 23:53:31;;;;;;;55.58;21.17;;;;;;;-5.15;93.65;102797.88;4993218;28;20028;-68
2022/12/17 23:56:10;;;;;;;58.58;22.35;;;;;;;-5.19;93.65;102800.78;4994519;28;20303;-68
2022/12/17 23:58:36;;;;;;;51.38;20.80;;;;;;;-5.20;94.08;102804.06;4993780;28;20026;-68
